sensor_id;sensor_type;location;lat;lon;timestamp;P1;durP1;ratioP1;P2;durP2;ratioP2
67028;SDS011;53934;52.142;11.738;2022-11-14T00:01:35;32.33;;;16.10;;
67028;SDS011;53934;52.142;11.738;2022-11-14T00:04:03;25.10;;;13.70;;
67028;SDS011;53934;52.142;11.738;2022-11-14T00:06:30;27.70;;;14.50;;
67028;SDS011;53934;52.142;11.738;2022-11-14T00:08:57;26.60;;;13.35;;
67028;SDS011;53934;52.142;11.738;2022-11-14T00:11:23;24.60;;;11.90;;
67028;SDS011;53934;52.142;11.738;2022-11-14T00:13:50;25.88;;;13.52;;
67028;SDS011;53934;52.142;11.738;2022-11-14T00:16:16;25.30;;;13.23;;
67028;SDS011;53934;52.142;11.738;2022-11-14T00:18:43;23.95;;;11.80;;
67028;SDS011;53934;52.142;11.738;2022-11-14T00:21:10;17.92;;;10.50;;
67028;SDS011;53934;52.142;11.738;2022-11-14T00:23:37;20.30;;;11.00;;
67028;SDS011;53934;52.142;11.738;2022-11-14T00:26:03;25.70;;;12.98;;
67028;SDS011;53934;52.142;11.738;2022-11-14T00:28:30;23.92;;;11.35;;
67028;SDS011;53934;52.142;11.738;2022-11-14T00:30:56;36.17;;;16.30;;
67028;SDS011;53934;52.142;11.738;2022-11-14T00:33:23;34.20;;;15.77;;
67028;SDS011;53934;52.142;11.738;2022-11-14T00:35:50;34.60;;;16.67;;
67028;SDS011;53934;52.142;11.738;2022-11-14T00:38:19;53.53;;;20.33;;
67028;SDS011;53934;52.142;11.738;2022-11-14T00:40:45;101.20;;;15.85;;
67028;SDS011;53934;52.142;11.738;2022-11-14T00:43:12;37.90;;;16.85;;
67028;SDS011;53934;52.142;11.738;2022-11-14T00:45:38;44.03;;;18.05;;
67028;SDS011;53934;52.142;11.738;2022-11-14T00:48:05;32.22;;;16.30;;
67028;SDS011;53934;52.142;11.738;2022-11-14T00:50:31;41.90;;;17.88;;
67028;SDS011;53934;52.142;11.738;2022-11-14T00:52:58;34.38;;;17.02;;
67028;SDS011;53934;52.142;11.738;2022-11-14T00:55:25;101.40;;;18.95;;
67028;SDS011;53934;52.142;11.738;2022-11-14T00:57:52;41.47;;;19.23;;
67028;SDS011;53934;52.142;11.738;2022-11-14T01:00:18;41.58;;;19.70;;
67028;SDS011;53934;52.142;11.738;2022-11-14T01:02:45;43.55;;;19.23;;
67028;SDS011;53934;52.142;11.738;2022-11-14T01:05:11;43.15;;;18.48;;
67028;SDS011;53934;52.142;11.738;2022-11-14T01:07:38;39.33;;;17.40;;
67028;SDS011;53934;52.142;11.738;2022-11-14T01:10:05;45.55;;;18.80;;
67028;SDS011;53934;52.142;11.738;2022-11-14T01:12:34;37.40;;;16.90;;
67028;SDS011;53934;52.142;11.738;2022-11-14T01:15:00;42.95;;;19.05;;
67028;SDS011;53934;52.142;11.738;2022-11-14T01:17:27;42.33;;;19.05;;
67028;SDS011;53934;52.142;11.738;2022-11-14T01:19:53;38.67;;;18.20;;
67028;SDS011;53934;52.142;11.738;2022-11-14T01:22:20;44.83;;;18.63;;
67028;SDS011;53934;52.142;11.738;2022-11-14T01:24:46;46.78;;;19.63;;
67028;SDS011;53934;52.142;11.738;2022-11-14T01:27:13;38.42;;;17.75;;
67028;SDS011;53934;52.142;11.738;2022-11-14T01:29:41;30.50;;;16.02;;
67028;SDS011;53934;52.142;11.738;2022-11-14T01:32:07;38.53;;;17.80;;
67028;SDS011;53934;52.142;11.738;2022-11-14T01:34:33;38.08;;;16.85;;
67028;SDS011;53934;52.142;11.738;2022-11-14T01:37:00;38.90;;;13.98;;
67028;SDS011;53934;52.142;11.738;2022-11-14T01:39:26;41.72;;;13.60;;
67028;SDS011;53934;52.142;11.738;2022-11-14T01:41:53;36.83;;;12.77;;
67028;SDS011;53934;52.142;11.738;2022-11-14T01:47:10;75.97;;;11.43;;
67028;SDS011;53934;52.142;11.738;2022-11-14T01:49:39;21.40;;;10.07;;
67028;SDS011;53934;52.142;11.738;2022-11-14T01:52:09;39.40;;;11.10;;
67028;SDS011;53934;52.142;11.738;2022-11-14T01:54:40;38.03;;;9.70;;
67028;SDS011;53934;52.142;11.738;2022-11-14T01:57:11;17.08;;;9.73;;
67028;SDS011;53934;52.142;11.738;2022-11-14T01:59:39;22.45;;;10.10;;
67028;SDS011;53934;52.142;11.738;2022-11-14T02:02:09;25.77;;;10.75;;
67028;SDS011;53934;52.142;11.738;2022-11-14T02:04:41;24.05;;;10.88;;
67028;SDS011;53934;52.142;11.738;2022-11-14T02:07:12;17.20;;;10.45;;
67028;SDS011;53934;52.142;11.738;2022-11-14T02:09:40;18.13;;;10.40;;
67028;SDS011;53934;52.142;11.738;2022-11-14T02:12:12;20.73;;;10.82;;
67028;SDS011;53934;52.142;11.738;2022-11-14T02:14:41;22.25;;;11.50;;
67028;SDS011;53934;52.142;11.738;2022-11-14T02:17:10;69.50;;;14.07;;
67028;SDS011;53934;52.142;11.738;2022-11-14T02:19:39;22.70;;;11.65;;
67028;SDS011;53934;52.142;11.738;2022-11-14T02:22:08;38.65;;;12.57;;
67028;SDS011;53934;52.142;11.738;2022-11-14T02:24:34;24.23;;;12.15;;
67028;SDS011;53934;52.142;11.738;2022-11-14T02:27:01;24.10;;;11.88;;
67028;SDS011;53934;52.142;11.738;2022-11-14T02:29:30;24.55;;;12.98;;
67028;SDS011;53934;52.142;11.738;2022-11-14T02:31:57;26.95;;;12.95;;
67028;SDS011;53934;52.142;11.738;2022-11-14T02:34:24;28.70;;;12.48;;
67028;SDS011;53934;52.142;11.738;2022-11-14T02:36:51;53.60;;;12.38;;
67028;SDS011;53934;52.142;11.738;2022-11-14T02:39:19;20.95;;;10.90;;
67028;SDS011;53934;52.142;11.738;2022-11-14T02:41:45;24.40;;;11.75;;
67028;SDS011;53934;52.142;11.738;2022-11-14T02:44:12;24.23;;;11.95;;
67028;SDS011;53934;52.142;11.738;2022-11-14T02:46:38;23.27;;;11.27;;
67028;SDS011;53934;52.142;11.738;2022-11-14T02:49:05;25.08;;;11.60;;
67028;SDS011;53934;52.142;11.738;2022-11-14T02:51:31;25.90;;;12.45;;
67028;SDS011;53934;52.142;11.738;2022-11-14T02:53:58;21.80;;;11.13;;
67028;SDS011;53934;52.142;11.738;2022-11-14T02:56:26;25.77;;;11.60;;
67028;SDS011;53934;52.142;11.738;2022-11-14T02:58:52;26.63;;;13.48;;
67028;SDS011;53934;52.142;11.738;2022-11-14T03:01:19;29.98;;;13.68;;
67028;SDS011;53934;52.142;11.738;2022-11-14T03:03:45;41.70;;;16.48;;
67028;SDS011;53934;52.142;11.738;2022-11-14T03:06:12;36.58;;;16.98;;
67028;SDS011;53934;52.142;11.738;2022-11-14T03:08:38;50.85;;;19.77;;
67028;SDS011;53934;52.142;11.738;2022-11-14T03:11:05;44.83;;;17.40;;
67028;SDS011;53934;52.142;11.738;2022-11-14T03:13:34;70.72;;;22.27;;
67028;SDS011;53934;52.142;11.738;2022-11-14T03:16:03;60.63;;;21.95;;
67028;SDS011;53934;52.142;11.738;2022-11-14T03:18:30;69.90;;;21.73;;
67028;SDS011;53934;52.142;11.738;2022-11-14T03:21:03;66.47;;;24.23;;
67028;SDS011;53934;52.142;11.738;2022-11-14T03:23:30;65.28;;;22.85;;
67028;SDS011;53934;52.142;11.738;2022-11-14T03:25:57;62.80;;;21.48;;
67028;SDS011;53934;52.142;11.738;2022-11-14T03:28:24;54.17;;;20.98;;
67028;SDS011;53934;52.142;11.738;2022-11-14T03:30:52;72.03;;;24.52;;
67028;SDS011;53934;52.142;11.738;2022-11-14T03:33:19;63.78;;;24.20;;
67028;SDS011;53934;52.142;11.738;2022-11-14T03:35:45;63.35;;;23.65;;
67028;SDS011;53934;52.142;11.738;2022-11-14T03:38:13;66.93;;;24.45;;
67028;SDS011;53934;52.142;11.738;2022-11-14T03:40:40;61.17;;;22.63;;
67028;SDS011;53934;52.142;11.738;2022-11-14T03:43:06;58.30;;;23.15;;
67028;SDS011;53934;52.142;11.738;2022-11-14T03:45:34;65.65;;;23.75;;
67028;SDS011;53934;52.142;11.738;2022-11-14T03:48:03;66.88;;;23.77;;
67028;SDS011;53934;52.142;11.738;2022-11-14T03:50:29;63.25;;;23.88;;
67028;SDS011;53934;52.142;11.738;2022-11-14T03:52:56;64.28;;;24.65;;
67028;SDS011;53934;52.142;11.738;2022-11-14T03:55:22;64.68;;;24.10;;
67028;SDS011;53934;52.142;11.738;2022-11-14T03:57:49;68.35;;;24.27;;
67028;SDS011;53934;52.142;11.738;2022-11-14T04:00:16;65.38;;;24.40;;
67028;SDS011;53934;52.142;11.738;2022-11-14T04:02:43;59.60;;;23.52;;
67028;SDS011;53934;52.142;11.738;2022-11-14T04:05:10;64.05;;;24.13;;
67028;SDS011;53934;52.142;11.738;2022-11-14T04:07:37;62.33;;;23.10;;
67028;SDS011;53934;52.142;11.738;2022-11-14T04:10:04;52.60;;;22.05;;
67028;SDS011;53934;52.142;11.738;2022-11-14T04:12:31;55.63;;;23.33;;
67028;SDS011;53934;52.142;11.738;2022-11-14T04:14:58;62.60;;;23.63;;
67028;SDS011;53934;52.142;11.738;2022-11-14T04:17:24;61.90;;;23.85;;
67028;SDS011;53934;52.142;11.738;2022-11-14T04:19:50;52.33;;;22.10;;
67028;SDS011;53934;52.142;11.738;2022-11-14T04:22:18;60.05;;;21.88;;
67028;SDS011;53934;52.142;11.738;2022-11-14T04:24:45;60.95;;;23.92;;
67028;SDS011;53934;52.142;11.738;2022-11-14T04:27:11;49.35;;;21.27;;
67028;SDS011;53934;52.142;11.738;2022-11-14T04:29:37;58.50;;;22.83;;
67028;SDS011;53934;52.142;11.738;2022-11-14T04:32:04;53.25;;;22.83;;
67028;SDS011;53934;52.142;11.738;2022-11-14T04:34:30;59.13;;;23.60;;
67028;SDS011;53934;52.142;11.738;2022-11-14T04:36:57;49.42;;;21.10;;
67028;SDS011;53934;52.142;11.738;2022-11-14T04:39:25;52.75;;;22.27;;
67028;SDS011;53934;52.142;11.738;2022-11-14T04:41:51;51.90;;;22.35;;
67028;SDS011;53934;52.142;11.738;2022-11-14T04:44:17;53.78;;;21.73;;
67028;SDS011;53934;52.142;11.738;2022-11-14T04:46:44;53.72;;;22.20;;
67028;SDS011;53934;52.142;11.738;2022-11-14T04:49:10;57.28;;;22.83;;
67028;SDS011;53934;52.142;11.738;2022-11-14T04:51:37;58.20;;;22.23;;
67028;SDS011;53934;52.142;11.738;2022-11-14T04:54:03;53.85;;;21.85;;
67028;SDS011;53934;52.142;11.738;2022-11-14T04:56:31;49.33;;;21.05;;
67028;SDS011;53934;52.142;11.738;2022-11-14T04:58:58;57.53;;;21.95;;
67028;SDS011;53934;52.142;11.738;2022-11-14T05:01:24;51.75;;;21.63;;
67028;SDS011;53934;52.142;11.738;2022-11-14T05:03:51;48.75;;;20.60;;
67028;SDS011;53934;52.142;11.738;2022-11-14T05:06:17;49.78;;;21.63;;
67028;SDS011;53934;52.142;11.738;2022-11-14T05:08:44;55.17;;;22.63;;
67028;SDS011;53934;52.142;11.738;2022-11-14T05:11:12;51.80;;;19.85;;
67028;SDS011;53934;52.142;11.738;2022-11-14T05:13:40;51.80;;;20.65;;
67028;SDS011;53934;52.142;11.738;2022-11-14T05:16:07;48.17;;;21.05;;
67028;SDS011;53934;52.142;11.738;2022-11-14T05:18:33;49.75;;;21.02;;
67028;SDS011;53934;52.142;11.738;2022-11-14T05:21:01;46.63;;;20.42;;
67028;SDS011;53934;52.142;11.738;2022-11-14T05:23:27;51.97;;;20.88;;
67028;SDS011;53934;52.142;11.738;2022-11-14T05:25:58;46.88;;;21.00;;
67028;SDS011;53934;52.142;11.738;2022-11-14T05:28:25;53.78;;;21.77;;
67028;SDS011;53934;52.142;11.738;2022-11-14T05:30:59;46.53;;;20.80;;
67028;SDS011;53934;52.142;11.738;2022-11-14T05:33:25;48.53;;;19.65;;
67028;SDS011;53934;52.142;11.738;2022-11-14T05:35:52;46.90;;;20.45;;
67028;SDS011;53934;52.142;11.738;2022-11-14T05:38:18;49.60;;;20.25;;
67028;SDS011;53934;52.142;11.738;2022-11-14T05:40:45;40.67;;;19.23;;
67028;SDS011;53934;52.142;11.738;2022-11-14T05:43:11;39.38;;;18.05;;
67028;SDS011;53934;52.142;11.738;2022-11-14T05:45:38;43.15;;;19.55;;
67028;SDS011;53934;52.142;11.738;2022-11-14T05:48:06;37.45;;;18.02;;
67028;SDS011;53934;52.142;11.738;2022-11-14T05:50:32;40.80;;;17.75;;
67028;SDS011;53934;52.142;11.738;2022-11-14T05:52:59;38.35;;;17.90;;
67028;SDS011;53934;52.142;11.738;2022-11-14T05:55:25;36.35;;;16.08;;
67028;SDS011;53934;52.142;11.738;2022-11-14T05:57:52;40.20;;;17.75;;
67028;SDS011;53934;52.142;11.738;2022-11-14T06:00:18;44.22;;;19.13;;
67028;SDS011;53934;52.142;11.738;2022-11-14T06:02:45;33.80;;;17.20;;
67028;SDS011;53934;52.142;11.738;2022-11-14T06:05:12;35.17;;;15.82;;
67028;SDS011;53934;52.142;11.738;2022-11-14T06:07:39;32.45;;;15.68;;
67028;SDS011;53934;52.142;11.738;2022-11-14T06:10:06;33.08;;;16.38;;
67028;SDS011;53934;52.142;11.738;2022-11-14T06:12:32;34.10;;;17.25;;
67028;SDS011;53934;52.142;11.738;2022-11-14T06:14:59;34.90;;;15.63;;
67028;SDS011;53934;52.142;11.738;2022-11-14T06:17:25;30.02;;;15.15;;
67028;SDS011;53934;52.142;11.738;2022-11-14T06:19:52;35.13;;;14.98;;
67028;SDS011;53934;52.142;11.738;2022-11-14T06:22:19;29.85;;;14.20;;
67028;SDS011;53934;52.142;11.738;2022-11-14T06:24:46;35.85;;;15.00;;
67028;SDS011;53934;52.142;11.738;2022-11-14T06:27:12;29.05;;;13.93;;
67028;SDS011;53934;52.142;11.738;2022-11-14T06:29:39;61.67;;;14.68;;
67028;SDS011;53934;52.142;11.738;2022-11-14T06:32:05;26.27;;;13.43;;
67028;SDS011;53934;52.142;11.738;2022-11-14T06:34:32;28.33;;;14.10;;
67028;SDS011;53934;52.142;11.738;2022-11-14T06:36:58;29.33;;;13.88;;
67028;SDS011;53934;52.142;11.738;2022-11-14T06:39:26;27.23;;;12.68;;
67028;SDS011;53934;52.142;11.738;2022-11-14T06:41:52;25.77;;;13.65;;
67028;SDS011;53934;52.142;11.738;2022-11-14T06:44:19;33.50;;;15.38;;
67028;SDS011;53934;52.142;11.738;2022-11-14T06:46:45;32.42;;;12.68;;
67028;SDS011;53934;52.142;11.738;2022-11-14T06:49:11;23.17;;;12.57;;
67028;SDS011;53934;52.142;11.738;2022-11-14T06:51:38;23.13;;;13.40;;
67028;SDS011;53934;52.142;11.738;2022-11-14T06:54:04;25.27;;;13.15;;
67028;SDS011;53934;52.142;11.738;2022-11-14T06:56:32;27.52;;;13.68;;
67028;SDS011;53934;52.142;11.738;2022-11-14T06:58:59;25.13;;;13.50;;
67028;SDS011;53934;52.142;11.738;2022-11-14T07:01:25;30.02;;;14.10;;
67028;SDS011;53934;52.142;11.738;2022-11-14T07:03:52;29.83;;;13.82;;
67028;SDS011;53934;52.142;11.738;2022-11-14T07:06:19;25.98;;;13.23;;
67028;SDS011;53934;52.142;11.738;2022-11-14T07:08:47;30.38;;;13.77;;
67028;SDS011;53934;52.142;11.738;2022-11-14T07:11:15;31.30;;;14.18;;
67028;SDS011;53934;52.142;11.738;2022-11-14T07:13:49;32.55;;;14.77;;
67028;SDS011;53934;52.142;11.738;2022-11-14T07:16:16;23.73;;;12.77;;
67028;SDS011;53934;52.142;11.738;2022-11-14T07:18:43;27.90;;;13.95;;
67028;SDS011;53934;52.142;11.738;2022-11-14T07:21:09;31.05;;;13.40;;
67028;SDS011;53934;52.142;11.738;2022-11-14T07:23:37;32.28;;;15.43;;
67028;SDS011;53934;52.142;11.738;2022-11-14T07:26:05;33.58;;;14.25;;
67028;SDS011;53934;52.142;11.738;2022-11-14T07:28:33;29.65;;;14.45;;
67028;SDS011;53934;52.142;11.738;2022-11-14T07:31:02;32.92;;;16.95;;
67028;SDS011;53934;52.142;11.738;2022-11-14T07:33:30;56.78;;;18.30;;
67028;SDS011;53934;52.142;11.738;2022-11-14T07:35:56;42.60;;;16.92;;
67028;SDS011;53934;52.142;11.738;2022-11-14T07:38:23;38.15;;;17.67;;
67028;SDS011;53934;52.142;11.738;2022-11-14T07:40:53;49.78;;;19.02;;
67028;SDS011;53934;52.142;11.738;2022-11-14T07:43:20;34.75;;;16.60;;
67028;SDS011;53934;52.142;11.738;2022-11-14T07:45:47;39.90;;;18.42;;
67028;SDS011;53934;52.142;11.738;2022-11-14T07:48:15;36.58;;;17.73;;
67028;SDS011;53934;52.142;11.738;2022-11-14T07:50:42;41.08;;;17.52;;
67028;SDS011;53934;52.142;11.738;2022-11-14T07:53:08;48.15;;;19.98;;
67028;SDS011;53934;52.142;11.738;2022-11-14T07:55:35;39.05;;;17.85;;
67028;SDS011;53934;52.142;11.738;2022-11-14T07:58:02;46.05;;;20.85;;
67028;SDS011;53934;52.142;11.738;2022-11-14T08:00:28;46.28;;;19.70;;
67028;SDS011;53934;52.142;11.738;2022-11-14T08:02:55;44.13;;;19.48;;
67028;SDS011;53934;52.142;11.738;2022-11-14T08:05:23;48.28;;;20.73;;
67028;SDS011;53934;52.142;11.738;2022-11-14T08:07:49;41.15;;;19.17;;
67028;SDS011;53934;52.142;11.738;2022-11-14T08:10:16;43.80;;;19.65;;
67028;SDS011;53934;52.142;11.738;2022-11-14T08:12:43;38.17;;;18.13;;
67028;SDS011;53934;52.142;11.738;2022-11-14T08:15:10;35.17;;;17.70;;
67028;SDS011;53934;52.142;11.738;2022-11-14T08:17:38;41.35;;;19.77;;
67028;SDS011;53934;52.142;11.738;2022-11-14T08:20:05;41.03;;;19.40;;
67028;SDS011;53934;52.142;11.738;2022-11-14T08:22:34;41.92;;;18.85;;
67028;SDS011;53934;52.142;11.738;2022-11-14T08:25:01;36.20;;;18.02;;
67028;SDS011;53934;52.142;11.738;2022-11-14T08:27:27;40.33;;;19.02;;
67028;SDS011;53934;52.142;11.738;2022-11-14T08:29:54;35.92;;;18.08;;
67028;SDS011;53934;52.142;11.738;2022-11-14T08:32:20;32.83;;;17.58;;
67028;SDS011;53934;52.142;11.738;2022-11-14T08:34:47;33.70;;;17.98;;
67028;SDS011;53934;52.142;11.738;2022-11-14T08:37:13;34.03;;;17.83;;
67028;SDS011;53934;52.142;11.738;2022-11-14T08:39:41;33.58;;;17.05;;
67028;SDS011;53934;52.142;11.738;2022-11-14T08:42:07;32.83;;;17.30;;
67028;SDS011;53934;52.142;11.738;2022-11-14T08:44:34;29.38;;;17.83;;
67028;SDS011;53934;52.142;11.738;2022-11-14T08:47:00;29.10;;;16.20;;
67028;SDS011;53934;52.142;11.738;2022-11-14T08:49:27;32.28;;;17.17;;
67028;SDS011;53934;52.142;11.738;2022-11-14T08:51:54;31.83;;;17.52;;
67028;SDS011;53934;52.142;11.738;2022-11-14T08:54:20;30.58;;;16.95;;
67028;SDS011;53934;52.142;11.738;2022-11-14T08:56:48;26.80;;;15.20;;
67028;SDS011;53934;52.142;11.738;2022-11-14T08:59:14;29.27;;;17.20;;
67028;SDS011;53934;52.142;11.738;2022-11-14T09:01:41;30.00;;;16.90;;
67028;SDS011;53934;52.142;11.738;2022-11-14T09:04:08;26.50;;;15.35;;
67028;SDS011;53934;52.142;11.738;2022-11-14T09:06:34;27.95;;;15.57;;
67028;SDS011;53934;52.142;11.738;2022-11-14T09:09:01;28.52;;;16.98;;
67028;SDS011;53934;52.142;11.738;2022-11-14T09:11:27;30.42;;;17.30;;
67028;SDS011;53934;52.142;11.738;2022-11-14T09:13:55;27.90;;;16.63;;
67028;SDS011;53934;52.142;11.738;2022-11-14T09:16:21;32.00;;;16.52;;
67028;SDS011;53934;52.142;11.738;2022-11-14T09:18:48;27.75;;;16.17;;
67028;SDS011;53934;52.142;11.738;2022-11-14T09:21:14;30.17;;;16.63;;
67028;SDS011;53934;52.142;11.738;2022-11-14T09:23:40;26.90;;;16.10;;
67028;SDS011;53934;52.142;11.738;2022-11-14T09:26:08;31.88;;;17.13;;
67028;SDS011;53934;52.142;11.738;2022-11-14T09:28:35;26.85;;;15.35;;
67028;SDS011;53934;52.142;11.738;2022-11-14T09:31:04;26.48;;;15.10;;
67028;SDS011;53934;52.142;11.738;2022-11-14T09:33:31;27.17;;;15.40;;
67028;SDS011;53934;52.142;11.738;2022-11-14T09:35:58;28.80;;;16.05;;
67028;SDS011;53934;52.142;11.738;2022-11-14T09:38:26;27.60;;;16.50;;
67028;SDS011;53934;52.142;11.738;2022-11-14T09:40:56;26.33;;;14.57;;
67028;SDS011;53934;52.142;11.738;2022-11-14T09:43:33;28.27;;;16.23;;
67028;SDS011;53934;52.142;11.738;2022-11-14T09:46:15;29.45;;;16.33;;
67028;SDS011;53934;52.142;11.738;2022-11-14T09:48:45;25.55;;;14.10;;
67028;SDS011;53934;52.142;11.738;2022-11-14T09:51:13;29.23;;;16.15;;
67028;SDS011;53934;52.142;11.738;2022-11-14T09:53:43;28.52;;;15.52;;
67028;SDS011;53934;52.142;11.738;2022-11-14T09:56:13;25.27;;;15.23;;
67028;SDS011;53934;52.142;11.738;2022-11-14T09:58:45;26.17;;;16.17;;
67028;SDS011;53934;52.142;11.738;2022-11-14T10:01:13;29.80;;;15.35;;
67028;SDS011;53934;52.142;11.738;2022-11-14T10:03:50;24.45;;;15.73;;
67028;SDS011;53934;52.142;11.738;2022-11-14T10:06:25;25.00;;;14.35;;
67028;SDS011;53934;52.142;11.738;2022-11-14T10:09:00;25.23;;;14.60;;
67028;SDS011;53934;52.142;11.738;2022-11-14T10:11:42;23.95;;;14.38;;
67028;SDS011;53934;52.142;11.738;2022-11-14T10:14:34;28.80;;;14.77;;
67028;SDS011;53934;52.142;11.738;2022-11-14T10:17:37;19.63;;;12.65;;
67028;SDS011;53934;52.142;11.738;2022-11-14T10:20:14;24.40;;;14.40;;
67028;SDS011;53934;52.142;11.738;2022-11-14T10:22:56;22.63;;;14.45;;
67028;SDS011;53934;52.142;11.738;2022-11-14T10:28:10;25.83;;;14.43;;
67028;SDS011;53934;52.142;11.738;2022-11-14T10:30:55;25.45;;;15.05;;
67028;SDS011;53934;52.142;11.738;2022-11-14T10:33:33;24.35;;;14.52;;
67028;SDS011;53934;52.142;11.738;2022-11-14T10:36:10;25.55;;;13.80;;
67028;SDS011;53934;52.142;11.738;2022-11-14T10:38:47;22.15;;;14.55;;
67028;SDS011;53934;52.142;11.738;2022-11-14T10:41:18;26.58;;;14.98;;
67028;SDS011;53934;52.142;11.738;2022-11-14T10:43:46;23.27;;;14.00;;
67028;SDS011;53934;52.142;11.738;2022-11-14T10:46:15;20.45;;;13.23;;
67028;SDS011;53934;52.142;11.738;2022-11-14T10:48:47;22.80;;;13.55;;
67028;SDS011;53934;52.142;11.738;2022-11-14T10:51:17;23.80;;;14.82;;
67028;SDS011;53934;52.142;11.738;2022-11-14T10:53:50;23.88;;;14.60;;
67028;SDS011;53934;52.142;11.738;2022-11-14T10:56:20;23.73;;;13.98;;
67028;SDS011;53934;52.142;11.738;2022-11-14T10:58:47;22.15;;;13.75;;
67028;SDS011;53934;52.142;11.738;2022-11-14T11:04:11;22.90;;;14.25;;
67028;SDS011;53934;52.142;11.738;2022-11-14T11:06:46;21.88;;;12.35;;
67028;SDS011;53934;52.142;11.738;2022-11-14T11:09:14;21.52;;;13.48;;
67028;SDS011;53934;52.142;11.738;2022-11-14T11:12:00;21.20;;;13.65;;
67028;SDS011;53934;52.142;11.738;2022-11-14T11:14:28;25.75;;;13.35;;
67028;SDS011;53934;52.142;11.738;2022-11-14T11:17:13;19.50;;;12.27;;
67028;SDS011;53934;52.142;11.738;2022-11-14T11:19:45;21.73;;;12.73;;
67028;SDS011;53934;52.142;11.738;2022-11-14T11:22:23;22.70;;;13.52;;
67028;SDS011;53934;52.142;11.738;2022-11-14T11:24:52;21.15;;;14.23;;
67028;SDS011;53934;52.142;11.738;2022-11-14T11:27:19;20.55;;;13.02;;
67028;SDS011;53934;52.142;11.738;2022-11-14T11:32:31;20.27;;;12.20;;
67028;SDS011;53934;52.142;11.738;2022-11-14T11:35:01;22.55;;;13.00;;
67028;SDS011;53934;52.142;11.738;2022-11-14T11:37:35;20.80;;;13.65;;
67028;SDS011;53934;52.142;11.738;2022-11-14T11:40:05;23.42;;;13.88;;
67028;SDS011;53934;52.142;11.738;2022-11-14T11:42:39;21.25;;;12.63;;
67028;SDS011;53934;52.142;11.738;2022-11-14T11:45:12;22.02;;;14.05;;
67028;SDS011;53934;52.142;11.738;2022-11-14T11:47:42;19.73;;;13.18;;
67028;SDS011;53934;52.142;11.738;2022-11-14T11:50:18;21.00;;;13.93;;
67028;SDS011;53934;52.142;11.738;2022-11-14T11:52:47;21.58;;;12.93;;
67028;SDS011;53934;52.142;11.738;2022-11-14T11:55:21;21.95;;;13.13;;
67028;SDS011;53934;52.142;11.738;2022-11-14T11:57:53;20.65;;;13.23;;
67028;SDS011;53934;52.142;11.738;2022-11-14T12:00:26;21.33;;;12.77;;
67028;SDS011;53934;52.142;11.738;2022-11-14T12:02:53;17.92;;;10.50;;
67028;SDS011;53934;52.142;11.738;2022-11-14T12:05:24;26.60;;;13.50;;
67028;SDS011;53934;52.142;11.738;2022-11-14T12:07:54;21.13;;;13.48;;
67028;SDS011;53934;52.142;11.738;2022-11-14T12:10:26;21.13;;;13.52;;
67028;SDS011;53934;52.142;11.738;2022-11-14T12:13:00;17.90;;;11.38;;
67028;SDS011;53934;52.142;11.738;2022-11-14T12:15:39;18.87;;;12.23;;
67028;SDS011;53934;52.142;11.738;2022-11-14T12:18:22;18.23;;;11.63;;
67028;SDS011;53934;52.142;11.738;2022-11-14T12:21:11;19.67;;;13.18;;
67028;SDS011;53934;52.142;11.738;2022-11-14T12:23:50;21.25;;;12.52;;
67028;SDS011;53934;52.142;11.738;2022-11-14T12:26:32;20.98;;;12.20;;
67028;SDS011;53934;52.142;11.738;2022-11-14T12:29:13;24.13;;;12.77;;
67028;SDS011;53934;52.142;11.738;2022-11-14T12:31:52;21.80;;;13.77;;
67028;SDS011;53934;52.142;11.738;2022-11-14T12:34:23;20.90;;;13.23;;
67028;SDS011;53934;52.142;11.738;2022-11-14T12:36:56;24.30;;;13.65;;
67028;SDS011;53934;52.142;11.738;2022-11-14T12:39:24;21.55;;;13.05;;
67028;SDS011;53934;52.142;11.738;2022-11-14T12:41:59;24.35;;;14.20;;
67028;SDS011;53934;52.142;11.738;2022-11-14T12:44:32;20.00;;;12.40;;
67028;SDS011;53934;52.142;11.738;2022-11-14T12:47:18;19.95;;;12.25;;
67028;SDS011;53934;52.142;11.738;2022-11-14T12:50:03;22.13;;;13.68;;
67028;SDS011;53934;52.142;11.738;2022-11-14T12:52:47;21.42;;;13.13;;
67028;SDS011;53934;52.142;11.738;2022-11-14T12:58:22;14.70;;;10.10;;
67028;SDS011;53934;52.142;11.738;2022-11-14T13:01:04;20.05;;;12.82;;
67028;SDS011;53934;52.142;11.738;2022-11-14T13:03:47;18.65;;;11.27;;
67028;SDS011;53934;52.142;11.738;2022-11-14T13:06:24;24.10;;;12.50;;
67028;SDS011;53934;52.142;11.738;2022-11-14T13:11:53;19.48;;;12.93;;
67028;SDS011;53934;52.142;11.738;2022-11-14T13:14:49;20.67;;;13.02;;
67028;SDS011;53934;52.142;11.738;2022-11-14T13:17:34;22.08;;;13.45;;
67028;SDS011;53934;52.142;11.738;2022-11-14T13:20:22;19.73;;;12.48;;
67028;SDS011;53934;52.142;11.738;2022-11-14T13:35:32;25.27;;;12.98;;
67028;SDS011;53934;52.142;11.738;2022-11-14T13:38:16;20.85;;;12.95;;
67028;SDS011;53934;52.142;11.738;2022-11-14T13:41:12;17.60;;;11.90;;
67028;SDS011;53934;52.142;11.738;2022-11-14T13:43:58;19.77;;;12.88;;
67028;SDS011;53934;52.142;11.738;2022-11-14T13:46:43;19.17;;;12.13;;
67028;SDS011;53934;52.142;11.738;2022-11-14T13:49:33;22.15;;;12.88;;
67028;SDS011;53934;52.142;11.738;2022-11-14T13:52:12;22.23;;;12.85;;
67028;SDS011;53934;52.142;11.738;2022-11-14T13:54:44;20.80;;;13.20;;
67028;SDS011;53934;52.142;11.738;2022-11-14T13:57:13;17.83;;;12.32;;
67028;SDS011;53934;52.142;11.738;2022-11-14T14:00:06;19.08;;;12.30;;
67028;SDS011;53934;52.142;11.738;2022-11-14T14:02:54;20.05;;;12.48;;
67028;SDS011;53934;52.142;11.738;2022-11-14T14:05:39;19.05;;;12.52;;
67028;SDS011;53934;52.142;11.738;2022-11-14T14:08:22;21.25;;;12.90;;
67028;SDS011;53934;52.142;11.738;2022-11-14T14:11:04;18.60;;;13.75;;
67028;SDS011;53934;52.142;11.738;2022-11-14T14:13:48;19.92;;;12.00;;
67028;SDS011;53934;52.142;11.738;2022-11-14T14:16:28;20.48;;;12.45;;
67028;SDS011;53934;52.142;11.738;2022-11-14T14:19:01;19.55;;;13.50;;
67028;SDS011;53934;52.142;11.738;2022-11-14T14:21:37;20.10;;;13.07;;
67028;SDS011;53934;52.142;11.738;2022-11-14T14:24:15;22.27;;;13.95;;
67028;SDS011;53934;52.142;11.738;2022-11-14T14:26:55;20.13;;;12.68;;
67028;SDS011;53934;52.142;11.738;2022-11-14T14:29:32;19.30;;;12.77;;
67028;SDS011;53934;52.142;11.738;2022-11-14T14:32:11;23.20;;;14.00;;
67028;SDS011;53934;52.142;11.738;2022-11-14T14:34:38;24.00;;;13.85;;
67028;SDS011;53934;52.142;11.738;2022-11-14T14:37:12;21.73;;;13.82;;
67028;SDS011;53934;52.142;11.738;2022-11-14T14:39:42;22.83;;;14.35;;
67028;SDS011;53934;52.142;11.738;2022-11-14T14:42:20;24.83;;;14.95;;
67028;SDS011;53934;52.142;11.738;2022-11-14T14:44:47;25.02;;;14.23;;
67028;SDS011;53934;52.142;11.738;2022-11-14T14:47:23;22.92;;;14.18;;
67028;SDS011;53934;52.142;11.738;2022-11-14T14:49:57;24.42;;;15.10;;
67028;SDS011;53934;52.142;11.738;2022-11-14T14:52:27;21.83;;;14.60;;
67028;SDS011;53934;52.142;11.738;2022-11-14T14:54:55;24.42;;;14.98;;